メインページ
METAR-TAF:

METAR-TAF

空港 :

ヌアクショット空港

ヌアクショット, モーリタニア

緯度: 18-18-36N, 経度: 015-58-11W, 海抜: 3m

現時点の気象観測

当レポートは21分前の10:30(UTC)に作成
の風 15kt
気温 26°C
湿度 37%
気圧 1012 hPa
視程10km以上
1,500メートル以下は雲なし、積乱雲なし

METAR: GQNO 211030Z 36015KT CAVOK 26/10 Q1012 NOSIG

時間: 10:51 (10:51 UTC)

予報

当レポートは5時間51分前の05:00(UTC)に作成
予報は21日の 06時(UTC)から 22日の 12時(UTC)まで有効
の風 12kt
視程: 8000m

TAF: GQNO 210500Z 2106/2212 35012KT 8000 NSC

4,000以上の空港の気象観測と天気予報(METAR報とTAF報)

利用可能な観測所は地図上に黄色い丸と赤い丸で示す。

丸の上にカーソルを重ねると観測所名を参照できる。

次にクリックすると気象観測と天気予報を参照できる。

マップの切り替え:黒色「×」印の緑ボタンをクリックして拡大、「-」印の緑ボタンをクリックして縮小、緑色の三角印をクリックして隣りの地図に切り替え


METAR-TAF: